sensor_id;sensor_type;location;lat;lon;timestamp;temperature;humidity
4813;DHT22;2420;51.202;8.698;2023-05-10T00:01:56;13.70;1.00
4813;DHT22;2420;51.202;8.698;2023-05-10T00:04:22;13.70;1.00
4813;DHT22;2420;51.202;8.698;2023-05-10T00:06:47;13.70;1.00
4813;DHT22;2420;51.202;8.698;2023-05-10T00:09:13;13.70;1.00
4813;DHT22;2420;51.202;8.698;2023-05-10T00:11:39;13.70;1.00
4813;DHT22;2420;51.202;8.698;2023-05-10T00:14:04;13.70;1.00
4813;DHT22;2420;51.202;8.698;2023-05-10T00:16:30;13.60;1.00
4813;DHT22;2420;51.202;8.698;2023-05-10T00:18:56;13.70;1.00
4813;DHT22;2420;51.202;8.698;2023-05-10T00:21:21;13.70;1.00
4813;DHT22;2420;51.202;8.698;2023-05-10T00:23:47;13.70;1.00
4813;DHT22;2420;51.202;8.698;2023-05-10T00:26:12;13.70;1.00
4813;DHT22;2420;51.202;8.698;2023-05-10T00:28:38;13.70;1.00
4813;DHT22;2420;51.202;8.698;2023-05-10T00:31:03;13.70;1.00
4813;DHT22;2420;51.202;8.698;2023-05-10T00:33:29;13.60;1.00
4813;DHT22;2420;51.202;8.698;2023-05-10T00:35:54;13.70;1.00
4813;DHT22;2420;51.202;8.698;2023-05-10T00:38:20;13.60;1.00
4813;DHT22;2420;51.202;8.698;2023-05-10T00:40:46;13.60;1.00
4813;DHT22;2420;51.202;8.698;2023-05-10T00:43:11;13.60;1.00
4813;DHT22;2420;51.202;8.698;2023-05-10T00:45:37;13.60;1.00
4813;DHT22;2420;51.202;8.698;2023-05-10T00:48:04;13.60;1.00
4813;DHT22;2420;51.202;8.698;2023-05-10T00:50:31;13.60;1.00
4813;DHT22;2420;51.202;8.698;2023-05-10T00:52:59;13.60;1.00
4813;DHT22;2420;51.202;8.698;2023-05-10T00:55:25;13.60;1.00
4813;DHT22;2420;51.202;8.698;2023-05-10T00:57:52;13.50;1.00
4813;DHT22;2420;51.202;8.698;2023-05-10T01:00:17;13.50;1.00
4813;DHT22;2420;51.202;8.698;2023-05-10T01:02:47;13.50;1.00
4813;DHT22;2420;51.202;8.698;2023-05-10T01:05:13;13.50;1.00
4813;DHT22;2420;51.202;8.698;2023-05-10T01:07:39;13.40;1.00
4813;DHT22;2420;51.202;8.698;2023-05-10T01:10:06;13.40;1.00
4813;DHT22;2420;51.202;8.698;2023-05-10T01:12:36;13.30;1.00
4813;DHT22;2420;51.202;8.698;2023-05-10T01:15:04;13.20;1.00
4813;DHT22;2420;51.202;8.698;2023-05-10T01:17:30;13.20;1.00
4813;DHT22;2420;51.202;8.698;2023-05-10T01:19:56;13.10;1.00
4813;DHT22;2420;51.202;8.698;2023-05-10T01:25:49;12.90;1.00
4813;DHT22;2420;51.202;8.698;2023-05-10T01:34:09;12.80;1.00
4813;DHT22;2420;51.202;8.698;2023-05-10T01:36:45;12.90;1.00
4813;DHT22;2420;51.202;8.698;2023-05-10T01:39:24;12.80;1.00
4813;DHT22;2420;51.202;8.698;2023-05-10T01:41:52;12.90;1.00
4813;DHT22;2420;51.202;8.698;2023-05-10T01:44:24;12.90;1.00
4813;DHT22;2420;51.202;8.698;2023-05-10T01:47:11;12.80;1.00
4813;DHT22;2420;51.202;8.698;2023-05-10T01:49:45;12.70;1.00
4813;DHT22;2420;51.202;8.698;2023-05-10T01:52:15;12.80;1.00
4813;DHT22;2420;51.202;8.698;2023-05-10T01:54:47;12.80;1.00
4813;DHT22;2420;51.202;8.698;2023-05-10T01:57:16;12.70;1.00
4813;DHT22;2420;51.202;8.698;2023-05-10T01:59:44;12.80;1.00
4813;DHT22;2420;51.202;8.698;2023-05-10T02:02:10;12.70;1.00
4813;DHT22;2420;51.202;8.698;2023-05-10T02:04:38;12.70;1.00
4813;DHT22;2420;51.202;8.698;2023-05-10T02:07:06;12.60;1.00
4813;DHT22;2420;51.202;8.698;2023-05-10T02:09:33;12.60;1.00
4813;DHT22;2420;51.202;8.698;2023-05-10T02:12:01;12.50;1.00
4813;DHT22;2420;51.202;8.698;2023-05-10T02:14:30;12.50;1.00
4813;DHT22;2420;51.202;8.698;2023-05-10T02:16:58;12.50;1.00
4813;DHT22;2420;51.202;8.698;2023-05-10T02:19:26;12.50;1.00
4813;DHT22;2420;51.202;8.698;2023-05-10T02:21:54;12.60;1.00
4813;DHT22;2420;51.202;8.698;2023-05-10T02:24:21;12.70;1.00
4813;DHT22;2420;51.202;8.698;2023-05-10T02:26:48;12.60;1.00
4813;DHT22;2420;51.202;8.698;2023-05-10T02:29:16;12.60;1.00
4813;DHT22;2420;51.202;8.698;2023-05-10T02:31:43;12.50;1.00
4813;DHT22;2420;51.202;8.698;2023-05-10T02:34:10;12.50;1.00
4813;DHT22;2420;51.202;8.698;2023-05-10T02:36:37;12.60;1.00
4813;DHT22;2420;51.202;8.698;2023-05-10T02:39:04;12.60;1.00
4813;DHT22;2420;51.202;8.698;2023-05-10T02:41:34;12.50;1.00
4813;DHT22;2420;51.202;8.698;2023-05-10T02:44:02;12.50;1.00
4813;DHT22;2420;51.202;8.698;2023-05-10T02:46:32;12.40;1.00
4813;DHT22;2420;51.202;8.698;2023-05-10T02:48:57;12.30;1.00
4813;DHT22;2420;51.202;8.698;2023-05-10T02:51:25;12.30;1.00
4813;DHT22;2420;51.202;8.698;2023-05-10T02:53:53;12.30;1.00
4813;DHT22;2420;51.202;8.698;2023-05-10T02:56:25;12.30;1.00
4813;DHT22;2420;51.202;8.698;2023-05-10T02:58:53;12.30;1.00
4813;DHT22;2420;51.202;8.698;2023-05-10T03:01:20;12.40;1.00
4813;DHT22;2420;51.202;8.698;2023-05-10T03:03:45;12.40;1.00
4813;DHT22;2420;51.202;8.698;2023-05-10T03:06:11;12.30;1.00
4813;DHT22;2420;51.202;8.698;2023-05-10T03:08:36;12.30;1.00
4813;DHT22;2420;51.202;8.698;2023-05-10T03:14:10;12.30;1.00
4813;DHT22;2420;51.202;8.698;2023-05-10T03:16:45;12.30;1.00
4813;DHT22;2420;51.202;8.698;2023-05-10T03:19:39;12.40;1.00
4813;DHT22;2420;51.202;8.698;2023-05-10T03:22:10;12.40;1.00
4813;DHT22;2420;51.202;8.698;2023-05-10T03:24:36;12.40;1.00
4813;DHT22;2420;51.202;8.698;2023-05-10T03:27:05;12.30;1.00
4813;DHT22;2420;51.202;8.698;2023-05-10T03:29:31;12.30;1.00
4813;DHT22;2420;51.202;8.698;2023-05-10T03:31:58;12.30;1.00
4813;DHT22;2420;51.202;8.698;2023-05-10T03:34:25;12.30;1.00
4813;DHT22;2420;51.202;8.698;2023-05-10T03:36:51;12.30;1.00
4813;DHT22;2420;51.202;8.698;2023-05-10T03:39:16;12.30;1.00
4813;DHT22;2420;51.202;8.698;2023-05-10T03:41:42;12.20;1.00
4813;DHT22;2420;51.202;8.698;2023-05-10T03:44:08;12.20;1.00
4813;DHT22;2420;51.202;8.698;2023-05-10T03:46:33;12.20;1.00
4813;DHT22;2420;51.202;8.698;2023-05-10T03:48:59;12.30;1.00
4813;DHT22;2420;51.202;8.698;2023-05-10T03:51:25;12.30;1.00
4813;DHT22;2420;51.202;8.698;2023-05-10T03:53:53;12.30;1.00
4813;DHT22;2420;51.202;8.698;2023-05-10T03:56:19;12.30;1.00
4813;DHT22;2420;51.202;8.698;2023-05-10T03:58:46;12.20;1.00
4813;DHT22;2420;51.202;8.698;2023-05-10T04:01:11;12.30;1.00
4813;DHT22;2420;51.202;8.698;2023-05-10T04:03:37;12.30;1.00
4813;DHT22;2420;51.202;8.698;2023-05-10T04:06:04;12.30;1.00
4813;DHT22;2420;51.202;8.698;2023-05-10T04:08:30;12.20;1.00
4813;DHT22;2420;51.202;8.698;2023-05-10T04:11:11;12.30;1.00
4813;DHT22;2420;51.202;8.698;2023-05-10T04:13:38;12.30;1.00
4813;DHT22;2420;51.202;8.698;2023-05-10T04:16:04;12.20;1.00
4813;DHT22;2420;51.202;8.698;2023-05-10T04:18:30;12.30;1.00
4813;DHT22;2420;51.202;8.698;2023-05-10T04:20:56;12.20;1.00
4813;DHT22;2420;51.202;8.698;2023-05-10T04:23:22;12.20;1.00
4813;DHT22;2420;51.202;8.698;2023-05-10T04:25:47;12.20;1.00
4813;DHT22;2420;51.202;8.698;2023-05-10T04:28:13;12.20;1.00
4813;DHT22;2420;51.202;8.698;2023-05-10T04:30:38;12.20;1.00
4813;DHT22;2420;51.202;8.698;2023-05-10T04:33:04;12.30;1.00
4813;DHT22;2420;51.202;8.698;2023-05-10T04:35:29;12.30;1.00
4813;DHT22;2420;51.202;8.698;2023-05-10T04:37:55;12.30;1.00
4813;DHT22;2420;51.202;8.698;2023-05-10T04:40:21;12.20;1.00
4813;DHT22;2420;51.202;8.698;2023-05-10T04:42:46;12.20;1.00
4813;DHT22;2420;51.202;8.698;2023-05-10T04:45:12;12.20;1.00
4813;DHT22;2420;51.202;8.698;2023-05-10T04:47:40;12.20;1.00
4813;DHT22;2420;51.202;8.698;2023-05-10T04:50:06;12.20;1.00
4813;DHT22;2420;51.202;8.698;2023-05-10T04:52:32;12.30;1.00
4813;DHT22;2420;51.202;8.698;2023-05-10T04:54:58;12.20;1.00
4813;DHT22;2420;51.202;8.698;2023-05-10T04:57:23;12.30;1.00
4813;DHT22;2420;51.202;8.698;2023-05-10T04:59:49;12.30;1.00
4813;DHT22;2420;51.202;8.698;2023-05-10T05:02:14;12.30;1.00
4813;DHT22;2420;51.202;8.698;2023-05-10T05:04:40;12.30;1.00
4813;DHT22;2420;51.202;8.698;2023-05-10T05:07:05;12.30;1.00
4813;DHT22;2420;51.202;8.698;2023-05-10T05:09:31;12.40;1.00
4813;DHT22;2420;51.202;8.698;2023-05-10T05:11:57;12.30;1.00
4813;DHT22;2420;51.202;8.698;2023-05-10T05:14:23;12.30;1.00
4813;DHT22;2420;51.202;8.698;2023-05-10T05:16:51;12.30;1.00
4813;DHT22;2420;51.202;8.698;2023-05-10T05:19:16;12.30;1.00
4813;DHT22;2420;51.202;8.698;2023-05-10T05:21:42;12.30;1.00
4813;DHT22;2420;51.202;8.698;2023-05-10T05:24:08;12.30;1.00
4813;DHT22;2420;51.202;8.698;2023-05-10T05:26:35;12.40;1.00
4813;DHT22;2420;51.202;8.698;2023-05-10T05:29:02;12.40;1.00
4813;DHT22;2420;51.202;8.698;2023-05-10T05:31:28;12.40;1.00
4813;DHT22;2420;51.202;8.698;2023-05-10T05:33:54;12.50;1.00
4813;DHT22;2420;51.202;8.698;2023-05-10T05:36:19;12.50;1.00
4813;DHT22;2420;51.202;8.698;2023-05-10T05:38:45;12.50;1.00
4813;DHT22;2420;51.202;8.698;2023-05-10T05:41:10;12.60;1.00
4813;DHT22;2420;51.202;8.698;2023-05-10T05:43:36;12.60;1.00
4813;DHT22;2420;51.202;8.698;2023-05-10T05:46:02;12.60;1.00
4813;DHT22;2420;51.202;8.698;2023-05-10T05:48:29;12.60;1.00
4813;DHT22;2420;51.202;8.698;2023-05-10T05:50:55;12.70;1.00
4813;DHT22;2420;51.202;8.698;2023-05-10T05:53:22;12.70;1.00
4813;DHT22;2420;51.202;8.698;2023-05-10T05:55:54;12.70;1.00
4813;DHT22;2420;51.202;8.698;2023-05-10T05:58:21;12.70;1.00
4813;DHT22;2420;51.202;8.698;2023-05-10T06:00:47;12.70;1.00
4813;DHT22;2420;51.202;8.698;2023-05-10T06:03:12;12.70;1.00
4813;DHT22;2420;51.202;8.698;2023-05-10T06:05:38;12.80;1.00
4813;DHT22;2420;51.202;8.698;2023-05-10T06:08:04;12.80;1.00
4813;DHT22;2420;51.202;8.698;2023-05-10T06:10:29;12.90;1.00
4813;DHT22;2420;51.202;8.698;2023-05-10T06:12:55;13.00;1.00
4813;DHT22;2420;51.202;8.698;2023-05-10T06:15:21;13.10;1.00
4813;DHT22;2420;51.202;8.698;2023-05-10T06:17:47;13.20;1.00
4813;DHT22;2420;51.202;8.698;2023-05-10T06:20:15;13.30;1.00
4813;DHT22;2420;51.202;8.698;2023-05-10T06:22:41;13.40;1.00
4813;DHT22;2420;51.202;8.698;2023-05-10T06:25:07;13.40;1.00
4813;DHT22;2420;51.202;8.698;2023-05-10T06:27:32;13.50;1.00
4813;DHT22;2420;51.202;8.698;2023-05-10T06:29:58;13.60;1.00
4813;DHT22;2420;51.202;8.698;2023-05-10T06:32:24;13.60;1.00
4813;DHT22;2420;51.202;8.698;2023-05-10T06:34:49;13.60;1.00
4813;DHT22;2420;51.202;8.698;2023-05-10T06:37:15;13.60;1.00
4813;DHT22;2420;51.202;8.698;2023-05-10T06:39:40;13.60;1.00
4813;DHT22;2420;51.202;8.698;2023-05-10T06:42:06;13.60;1.00
4813;DHT22;2420;51.202;8.698;2023-05-10T06:44:31;13.50;1.00
4813;DHT22;2420;51.202;8.698;2023-05-10T06:46:57;13.60;1.00
4813;DHT22;2420;51.202;8.698;2023-05-10T06:49:22;13.60;1.00
4813;DHT22;2420;51.202;8.698;2023-05-10T06:51:48;13.70;1.00
4813;DHT22;2420;51.202;8.698;2023-05-10T06:54:14;13.80;1.00
4813;DHT22;2420;51.202;8.698;2023-05-10T06:56:39;13.80;1.00
4813;DHT22;2420;51.202;8.698;2023-05-10T06:59:05;13.90;1.00
4813;DHT22;2420;51.202;8.698;2023-05-10T07:01:30;13.90;1.00
4813;DHT22;2420;51.202;8.698;2023-05-10T07:03:56;13.80;1.00
4813;DHT22;2420;51.202;8.698;2023-05-10T07:06:22;13.70;1.00
4813;DHT22;2420;51.202;8.698;2023-05-10T07:08:47;13.70;1.00
4813;DHT22;2420;51.202;8.698;2023-05-10T07:11:13;13.80;1.00
4813;DHT22;2420;51.202;8.698;2023-05-10T07:13:38;13.80;1.00
4813;DHT22;2420;51.202;8.698;2023-05-10T07:16:06;13.80;1.00
4813;DHT22;2420;51.202;8.698;2023-05-10T07:18:35;13.80;1.00
4813;DHT22;2420;51.202;8.698;2023-05-10T07:21:01;13.90;1.00
4813;DHT22;2420;51.202;8.698;2023-05-10T07:23:27;13.70;1.00
4813;DHT22;2420;51.202;8.698;2023-05-10T07:25:53;13.50;1.00
4813;DHT22;2420;51.202;8.698;2023-05-10T07:28:19;13.40;1.00
4813;DHT22;2420;51.202;8.698;2023-05-10T07:30:45;13.40;1.00
4813;DHT22;2420;51.202;8.698;2023-05-10T07:33:11;13.50;1.00
4813;DHT22;2420;51.202;8.698;2023-05-10T07:35:37;13.50;1.00
4813;DHT22;2420;51.202;8.698;2023-05-10T07:38:03;13.50;1.00
4813;DHT22;2420;51.202;8.698;2023-05-10T07:40:29;13.60;1.00
4813;DHT22;2420;51.202;8.698;2023-05-10T07:42:55;13.80;1.00
4813;DHT22;2420;51.202;8.698;2023-05-10T07:45:20;14.00;1.00
4813;DHT22;2420;51.202;8.698;2023-05-10T07:47:46;14.20;1.00
4813;DHT22;2420;51.202;8.698;2023-05-10T07:50:12;14.10;1.00
4813;DHT22;2420;51.202;8.698;2023-05-10T07:52:37;14.10;1.00
4813;DHT22;2420;51.202;8.698;2023-05-10T07:55:03;14.10;1.00
4813;DHT22;2420;51.202;8.698;2023-05-10T07:57:29;14.10;1.00
4813;DHT22;2420;51.202;8.698;2023-05-10T07:59:54;14.20;1.00
4813;DHT22;2420;51.202;8.698;2023-05-10T08:02:20;14.20;1.00
4813;DHT22;2420;51.202;8.698;2023-05-10T08:04:45;14.30;1.00
4813;DHT22;2420;51.202;8.698;2023-05-10T08:07:11;14.40;1.00
4813;DHT22;2420;51.202;8.698;2023-05-10T08:09:37;14.40;1.00
4813;DHT22;2420;51.202;8.698;2023-05-10T08:12:02;14.50;1.00
4813;DHT22;2420;51.202;8.698;2023-05-10T08:14:29;14.50;1.00
4813;DHT22;2420;51.202;8.698;2023-05-10T08:16:55;14.60;1.00
4813;DHT22;2420;51.202;8.698;2023-05-10T08:19:20;14.70;1.00
4813;DHT22;2420;51.202;8.698;2023-05-10T08:21:47;14.90;1.00
4813;DHT22;2420;51.202;8.698;2023-05-10T08:24:13;15.10;1.00
4813;DHT22;2420;51.202;8.698;2023-05-10T08:26:38;15.40;1.00
4813;DHT22;2420;51.202;8.698;2023-05-10T08:29:04;15.50;1.00
4813;DHT22;2420;51.202;8.698;2023-05-10T08:31:29;15.50;1.00
4813;DHT22;2420;51.202;8.698;2023-05-10T08:33:55;15.50;1.00
4813;DHT22;2420;51.202;8.698;2023-05-10T08:36:21;15.60;1.00
4813;DHT22;2420;51.202;8.698;2023-05-10T08:38:52;15.50;1.00
4813;DHT22;2420;51.202;8.698;2023-05-10T08:41:20;15.40;1.00
4813;DHT22;2420;51.202;8.698;2023-05-10T08:43:53;15.20;1.00
4813;DHT22;2420;51.202;8.698;2023-05-10T08:46:20;15.20;1.00
4813;DHT22;2420;51.202;8.698;2023-05-10T08:48:47;15.20;1.00
4813;DHT22;2420;51.202;8.698;2023-05-10T08:51:15;15.20;1.00
4813;DHT22;2420;51.202;8.698;2023-05-10T08:53:44;15.30;1.00
4813;DHT22;2420;51.202;8.698;2023-05-10T08:56:09;15.40;1.00
4813;DHT22;2420;51.202;8.698;2023-05-10T08:58:36;15.40;1.00
4813;DHT22;2420;51.202;8.698;2023-05-10T09:01:02;15.50;1.00
4813;DHT22;2420;51.202;8.698;2023-05-10T09:03:28;15.60;1.00
4813;DHT22;2420;51.202;8.698;2023-05-10T09:05:54;15.50;1.00
4813;DHT22;2420;51.202;8.698;2023-05-10T09:08:21;15.60;1.00
4813;DHT22;2420;51.202;8.698;2023-05-10T09:10:50;15.70;1.00
4813;DHT22;2420;51.202;8.698;2023-05-10T09:13:17;15.70;1.00
4813;DHT22;2420;51.202;8.698;2023-05-10T09:15:44;16.00;1.00
4813;DHT22;2420;51.202;8.698;2023-05-10T09:18:10;16.40;1.00
4813;DHT22;2420;51.202;8.698;2023-05-10T09:20:36;16.60;1.00
4813;DHT22;2420;51.202;8.698;2023-05-10T09:23:01;16.80;1.00
4813;DHT22;2420;51.202;8.698;2023-05-10T09:25:27;16.90;1.00
4813;DHT22;2420;51.202;8.698;2023-05-10T09:27:53;17.00;1.00
4813;DHT22;2420;51.202;8.698;2023-05-10T09:30:27;17.20;1.00
4813;DHT22;2420;51.202;8.698;2023-05-10T09:32:53;17.30;1.00
4813;DHT22;2420;51.202;8.698;2023-05-10T09:35:21;17.40;1.00
4813;DHT22;2420;51.202;8.698;2023-05-10T09:37:49;17.50;1.00
4813;DHT22;2420;51.202;8.698;2023-05-10T09:40:20;17.80;1.00
4813;DHT22;2420;51.202;8.698;2023-05-10T09:43:11;18.00;1.00
4813;DHT22;2420;51.202;8.698;2023-05-10T09:45:41;18.20;1.00
4813;DHT22;2420;51.202;8.698;2023-05-10T09:48:06;18.50;1.00
4813;DHT22;2420;51.202;8.698;2023-05-10T09:50:32;18.60;1.00
4813;DHT22;2420;51.202;8.698;2023-05-10T09:52:59;18.70;1.00
4813;DHT22;2420;51.202;8.698;2023-05-10T09:55:41;18.50;1.00
4813;DHT22;2420;51.202;8.698;2023-05-10T09:58:08;17.90;1.00
4813;DHT22;2420;51.202;8.698;2023-05-10T10:00:36;17.50;1.00
4813;DHT22;2420;51.202;8.698;2023-05-10T10:03:03;17.30;1.00
4813;DHT22;2420;51.202;8.698;2023-05-10T10:05:33;17.10;1.00
4813;DHT22;2420;51.202;8.698;2023-05-10T10:08:00;17.00;1.00
4813;DHT22;2420;51.202;8.698;2023-05-10T10:10:27;17.10;1.00
4813;DHT22;2420;51.202;8.698;2023-05-10T10:12:54;17.00;1.00
4813;DHT22;2420;51.202;8.698;2023-05-10T10:15:21;17.00;1.00
4813;DHT22;2420;51.202;8.698;2023-05-10T10:17:48;17.00;1.00
4813;DHT22;2420;51.202;8.698;2023-05-10T10:20:14;17.00;1.00
4813;DHT22;2420;51.202;8.698;2023-05-10T10:22:40;17.10;1.00
4813;DHT22;2420;51.202;8.698;2023-05-10T10:25:07;17.00;1.00
4813;DHT22;2420;51.202;8.698;2023-05-10T10:27:45;16.90;1.00
4813;DHT22;2420;51.202;8.698;2023-05-10T10:35:19;17.00;1.00
4813;DHT22;2420;51.202;8.698;2023-05-10T10:37:46;17.10;1.00
4813;DHT22;2420;51.202;8.698;2023-05-10T10:40:32;17.20;1.00
4813;DHT22;2420;51.202;8.698;2023-05-10T10:43:25;17.30;1.00
4813;DHT22;2420;51.202;8.698;2023-05-10T10:46:13;17.30;1.00
4813;DHT22;2420;51.202;8.698;2023-05-10T10:48:40;17.20;1.00
4813;DHT22;2420;51.202;8.698;2023-05-10T10:51:06;17.20;1.00
4813;DHT22;2420;51.202;8.698;2023-05-10T10:53:32;17.20;1.00
4813;DHT22;2420;51.202;8.698;2023-05-10T10:56:11;17.10;1.00
4813;DHT22;2420;51.202;8.698;2023-05-10T10:58:39;17.00;1.00
4813;DHT22;2420;51.202;8.698;2023-05-10T11:01:15;17.10;1.00
4813;DHT22;2420;51.202;8.698;2023-05-10T11:06:33;17.80;1.00
4813;DHT22;2420;51.202;8.698;2023-05-10T11:09:05;18.10;1.00
4813;DHT22;2420;51.202;8.698;2023-05-10T11:11:31;18.20;1.00
4813;DHT22;2420;51.202;8.698;2023-05-10T11:14:03;18.30;1.00
4813;DHT22;2420;51.202;8.698;2023-05-10T11:16:41;18.60;1.00
4813;DHT22;2420;51.202;8.698;2023-05-10T11:19:10;18.70;1.00
4813;DHT22;2420;51.202;8.698;2023-05-10T11:21:51;18.80;1.00
4813;DHT22;2420;51.202;8.698;2023-05-10T11:24:22;18.80;1.00
4813;DHT22;2420;51.202;8.698;2023-05-10T11:26:51;19.00;1.00
4813;DHT22;2420;51.202;8.698;2023-05-10T11:29:17;19.10;1.00
4813;DHT22;2420;51.202;8.698;2023-05-10T11:31:47;19.40;1.00
4813;DHT22;2420;51.202;8.698;2023-05-10T11:34:30;19.40;1.00
4813;DHT22;2420;51.202;8.698;2023-05-10T11:36:57;19.20;1.00
4813;DHT22;2420;51.202;8.698;2023-05-10T11:39:30;19.00;1.00
4813;DHT22;2420;51.202;8.698;2023-05-10T11:41:57;18.60;1.00
4813;DHT22;2420;51.202;8.698;2023-05-10T11:44:23;18.40;1.00
4813;DHT22;2420;51.202;8.698;2023-05-10T11:46:49;18.30;1.00
4813;DHT22;2420;51.202;8.698;2023-05-10T11:49:14;18.20;1.00
4813;DHT22;2420;51.202;8.698;2023-05-10T11:51:40;18.20;1.00
4813;DHT22;2420;51.202;8.698;2023-05-10T11:54:09;18.20;1.00
4813;DHT22;2420;51.202;8.698;2023-05-10T11:56:35;18.20;1.00
4813;DHT22;2420;51.202;8.698;2023-05-10T11:59:01;18.40;1.00
4813;DHT22;2420;51.202;8.698;2023-05-10T12:01:28;18.50;1.00
4813;DHT22;2420;51.202;8.698;2023-05-10T12:03:55;18.90;1.00
4813;DHT22;2420;51.202;8.698;2023-05-10T12:06:26;19.30;1.00
4813;DHT22;2420;51.202;8.698;2023-05-10T12:08:52;19.70;1.00
4813;DHT22;2420;51.202;8.698;2023-05-10T12:11:19;19.80;1.00
4813;DHT22;2420;51.202;8.698;2023-05-10T12:13:46;19.70;1.00
4813;DHT22;2420;51.202;8.698;2023-05-10T12:16:32;19.50;1.00
4813;DHT22;2420;51.202;8.698;2023-05-10T12:18:59;19.20;1.00
4813;DHT22;2420;51.202;8.698;2023-05-10T12:21:26;18.80;1.00
4813;DHT22;2420;51.202;8.698;2023-05-10T12:23:54;18.50;1.00
4813;DHT22;2420;51.202;8.698;2023-05-10T12:26:24;18.10;1.00
4813;DHT22;2420;51.202;8.698;2023-05-10T12:28:54;17.90;1.00
4813;DHT22;2420;51.202;8.698;2023-05-10T12:31:20;17.70;1.00
4813;DHT22;2420;51.202;8.698;2023-05-10T12:33:46;17.50;1.00
4813;DHT22;2420;51.202;8.698;2023-05-10T12:36:15;17.20;1.00
4813;DHT22;2420;51.202;8.698;2023-05-10T12:38:45;17.20;1.00
4813;DHT22;2420;51.202;8.698;2023-05-10T12:41:15;17.00;1.00
4813;DHT22;2420;51.202;8.698;2023-05-10T12:43:41;16.90;1.00
4813;DHT22;2420;51.202;8.698;2023-05-10T12:48:33;16.50;1.00
4813;DHT22;2420;51.202;8.698;2023-05-10T12:51:02;16.40;1.00
4813;DHT22;2420;51.202;8.698;2023-05-10T12:53:27;16.20;1.00
4813;DHT22;2420;51.202;8.698;2023-05-10T12:55:53;16.10;1.00
4813;DHT22;2420;51.202;8.698;2023-05-10T12:58:19;16.20;1.00
4813;DHT22;2420;51.202;8.698;2023-05-10T13:00:45;16.10;1.00
4813;DHT22;2420;51.202;8.698;2023-05-10T13:03:11;15.90;1.00
4813;DHT22;2420;51.202;8.698;2023-05-10T13:05:36;15.90;1.00
4813;DHT22;2420;51.202;8.698;2023-05-10T13:08:02;16.00;1.00
4813;DHT22;2420;51.202;8.698;2023-05-10T13:10:31;15.90;1.00
4813;DHT22;2420;51.202;8.698;2023-05-10T13:12:57;15.80;1.00
4813;DHT22;2420;51.202;8.698;2023-05-10T13:15:23;15.70;1.00
4813;DHT22;2420;51.202;8.698;2023-05-10T13:17:48;15.70;1.00
4813;DHT22;2420;51.202;8.698;2023-05-10T13:20:14;15.70;1.00
4813;DHT22;2420;51.202;8.698;2023-05-10T13:22:41;15.50;1.00
4813;DHT22;2420;51.202;8.698;2023-05-10T13:25:07;15.40;1.00
4813;DHT22;2420;51.202;8.698;2023-05-10T13:27:35;15.30;1.00
4813;DHT22;2420;51.202;8.698;2023-05-10T13:30:02;15.30;1.00
4813;DHT22;2420;51.202;8.698;2023-05-10T13:32:28;15.30;1.00
4813;DHT22;2420;51.202;8.698;2023-05-10T13:34:55;15.20;1.00
4813;DHT22;2420;51.202;8.698;2023-05-10T13:37:21;15.10;1.00
4813;DHT22;2420;51.202;8.698;2023-05-10T13:39:47;15.00;1.00
4813;DHT22;2420;51.202;8.698;2023-05-10T13:42:12;14.90;1.00
4813;DHT22;2420;51.202;8.698;2023-05-10T13:44:38;15.00;1.00
4813;DHT22;2420;51.202;8.698;2023-05-10T13:47:04;14.90;1.00
4813;DHT22;2420;51.202;8.698;2023-05-10T13:49:30;14.90;1.00
4813;DHT22;2420;51.202;8.698;2023-05-10T13:51:55;14.80;1.00
4813;DHT22;2420;51.202;8.698;2023-05-10T13:54:21;14.90;1.00
4813;DHT22;2420;51.202;8.698;2023-05-10T13:56:47;15.00;1.00
4813;DHT22;2420;51.202;8.698;2023-05-10T13:59:14;15.00;1.00
4813;DHT22;2420;51.202;8.698;2023-05-10T14:01:40;15.00;1.00
4813;DHT22;2420;51.202;8.698;2023-05-10T14:04:05;14.90;1.00
4813;DHT22;2420;51.202;8.698;2023-05-10T14:06:32;14.90;1.00
4813;DHT22;2420;51.202;8.698;2023-05-10T14:08:57;14.70;1.00
4813;DHT22;2420;51.202;8.698;2023-05-10T14:11:23;14.80;1.00
4813;DHT22;2420;51.202;8.698;2023-05-10T14:13:49;14.60;1.00
4813;DHT22;2420;51.202;8.698;2023-05-10T14:16:14;14.50;1.00
4813;DHT22;2420;51.202;8.698;2023-05-10T14:18:40;14.40;1.00
4813;DHT22;2420;51.202;8.698;2023-05-10T14:21:05;14.20;1.00
4813;DHT22;2420;51.202;8.698;2023-05-10T14:23:31;14.20;1.00
4813;DHT22;2420;51.202;8.698;2023-05-10T14:25:57;14.30;1.00
4813;DHT22;2420;51.202;8.698;2023-05-10T14:28:22;14.40;1.00
4813;DHT22;2420;51.202;8.698;2023-05-10T14:30:49;14.30;1.00
4813;DHT22;2420;51.202;8.698;2023-05-10T14:33:14;14.20;1.00
4813;DHT22;2420;51.202;8.698;2023-05-10T14:35:40;14.20;1.00
4813;DHT22;2420;51.202;8.698;2023-05-10T14:38:06;14.20;1.00
4813;DHT22;2420;51.202;8.698;2023-05-10T14:40:32;14.30;1.00
4813;DHT22;2420;51.202;8.698;2023-05-10T14:42:57;14.40;1.00
4813;DHT22;2420;51.202;8.698;2023-05-10T14:45:23;14.50;1.00
4813;DHT22;2420;51.202;8.698;2023-05-10T14:47:49;14.60;1.00
4813;DHT22;2420;51.202;8.698;2023-05-10T14:50:15;14.70;1.00
4813;DHT22;2420;51.202;8.698;2023-05-10T14:52:42;14.80;1.00
4813;DHT22;2420;51.202;8.698;2023-05-10T14:55:08;14.90;1.00
4813;DHT22;2420;51.202;8.698;2023-05-10T14:57:36;15.00;1.00
4813;DHT22;2420;51.202;8.698;2023-05-10T15:00:03;15.00;1.00
4813;DHT22;2420;51.202;8.698;2023-05-10T15:02:30;15.00;1.00
4813;DHT22;2420;51.202;8.698;2023-05-10T15:04:55;15.10;1.00
4813;DHT22;2420;51.202;8.698;2023-05-10T15:07:21;15.00;1.00
4813;DHT22;2420;51.202;8.698;2023-05-10T15:09:46;14.90;1.00
4813;DHT22;2420;51.202;8.698;2023-05-10T15:12:12;14.90;1.00
4813;DHT22;2420;51.202;8.698;2023-05-10T15:14:37;15.00;1.00
4813;DHT22;2420;51.202;8.698;2023-05-10T15:17:05;15.00;1.00
4813;DHT22;2420;51.202;8.698;2023-05-10T15:19:31;15.10;1.00
4813;DHT22;2420;51.202;8.698;2023-05-10T15:21:58;15.10;1.00
4813;DHT22;2420;51.202;8.698;2023-05-10T15:24:24;15.00;1.00
4813;DHT22;2420;51.202;8.698;2023-05-10T15:26:50;14.90;1.00
4813;DHT22;2420;51.202;8.698;2023-05-10T15:29:15;14.80;1.00
4813;DHT22;2420;51.202;8.698;2023-05-10T15:31:46;14.70;1.00
4813;DHT22;2420;51.202;8.698;2023-05-10T15:34:12;14.60;1.00
4813;DHT22;2420;51.202;8.698;2023-05-10T15:36:38;14.60;1.00
4813;DHT22;2420;51.202;8.698;2023-05-10T15:39:04;14.60;1.00
4813;DHT22;2420;51.202;8.698;2023-05-10T15:41:29;14.60;1.00
4813;DHT22;2420;51.202;8.698;2023-05-10T15:43:55;14.50;1.00
4813;DHT22;2420;51.202;8.698;2023-05-10T15:46:21;14.50;1.00
4813;DHT22;2420;51.202;8.698;2023-05-10T15:48:46;14.50;1.00
4813;DHT22;2420;51.202;8.698;2023-05-10T15:51:12;14.50;1.00
4813;DHT22;2420;51.202;8.698;2023-05-10T15:53:38;14.50;1.00
4813;DHT22;2420;51.202;8.698;2023-05-10T15:56:04;14.50;1.00
4813;DHT22;2420;51.202;8.698;2023-05-10T15:58:30;14.50;1.00
4813;DHT22;2420;51.202;8.698;2023-05-10T16:00:56;14.50;1.00
4813;DHT22;2420;51.202;8.698;2023-05-10T16:03:22;14.50;1.00
4813;DHT22;2420;51.202;8.698;2023-05-10T16:05:47;14.40;1.00
4813;DHT22;2420;51.202;8.698;2023-05-10T16:08:13;14.40;1.00
4813;DHT22;2420;51.202;8.698;2023-05-10T16:10:39;14.30;1.00
4813;DHT22;2420;51.202;8.698;2023-05-10T16:13:05;14.20;1.00
4813;DHT22;2420;51.202;8.698;2023-05-10T16:15:30;14.10;1.00
4813;DHT22;2420;51.202;8.698;2023-05-10T16:17:56;14.10;1.00
4813;DHT22;2420;51.202;8.698;2023-05-10T16:20:22;14.10;1.00
4813;DHT22;2420;51.202;8.698;2023-05-10T16:22:48;14.00;1.00
4813;DHT22;2420;51.202;8.698;2023-05-10T16:25:13;14.00;1.00
4813;DHT22;2420;51.202;8.698;2023-05-10T16:27:39;14.10;1.00
4813;DHT22;2420;51.202;8.698;2023-05-10T16:30:05;14.20;1.00
4813;DHT22;2420;51.202;8.698;2023-05-10T16:32:31;14.30;1.00
4813;DHT22;2420;51.202;8.698;2023-05-10T16:34:57;14.20;1.00
4813;DHT22;2420;51.202;8.698;2023-05-10T16:37:23;14.20;1.00
4813;DHT22;2420;51.202;8.698;2023-05-10T16:39:48;14.10;1.00